Wilson, Minnesota
Current Conditions -  °F | °C
As of 1:33 AM on Wednesday 22 Oct 2014 (Local Time) from KPWC Reporting Station
Clear Clear  
Wind Chill: 40°   Ceiling: Unl
Heat Index: 45°   Visibility: 10mi
Dew Point: 37°   Wind: 8mph
Humidity: 76%   Direction: 150°SSE
Pressure: 30.12"   Gusts: NA
Location:  46.6535°N, 94.5389°W
Report Text: KPWC 220633Z AUTO 15007KT 10SM CLR 07/03 A3012 RMK AO2
Loading
Personal Weather Stations






























Interactive Weather Map
Tropical Storm Tracking
New forecast layout! Learn more

10-Day Weather Forecast

Advertisements
Track Severe Weather on mobile